Time,TemperatureF,DewpointF,PressureIn,WindDirection,WindDirectionDegrees,WindSpeedMPH,WindSpeedGustMPH,Humidity,HourlyPrecipIn,Conditions,Clouds,dailyrainin,SoftwareType,DateUTC
2013-01-16 00:14:00,34.9,34.4,29.96,NNE,22,7.3,-999.0,98,-99.99,,,0.00,Acu-Link.com,2013-01-16 06:14:00,
2013-01-16 02:50:00,35.6,35.1,29.99,NNE,22,4.2,-999.0,98,-99.99,,,0.00,Acu-Link.com,2013-01-16 08:50:00,
2013-01-16 03:34:00,36.1,35.6,30.01,North,0,3.2,-999.0,98,-99.99,,,0.00,Acu-Link.com,2013-01-16 09:34:00,
2013-01-16 03:55:00,36.3,35.8,30.01,North,0,5.3,-999.0,98,-99.99,,,0.00,Acu-Link.com,2013-01-16 09:55:00,
2013-01-16 04:10:00,36.3,35.8,30.02,NNW,337,8.3,-999.0,98,-99.99,,,0.00,Acu-Link.com,2013-01-16 10:10:00,
2013-01-16 04:25:00,36.5,36.0,30.01,NNW,337,9.9,-999.0,98,-99.99,,,0.00,Acu-Link.com,2013-01-16 10:25:00,
2013-01-16 04:41:00,36.5,36.0,29.99,NNW,337,6.3,-999.0,98,-99.99,,,0.00,Acu-Link.com,2013-01-16 10:41:00,
2013-01-16 05:08:00,36.7,36.2,29.99,NE,45,9.9,-999.0,98,-99.99,,,0.00,Acu-Link.com,2013-01-16 11:08:00,
2013-01-16 05:23:00,36.7,36.2,29.99,NE,45,7.8,-999.0,98,-99.99,,,0.00,Acu-Link.com,2013-01-16 11:23:00,
2013-01-16 05:39:00,36.9,36.4,29.99,North,0,10.9,-999.0,98,-99.99,,,0.00,Acu-Link.com,2013-01-16 11:39:00,
2013-01-16 05:54:00,37.0,36.5,30.00,NNW,337,8.3,-999.0,98,-99.99,,,0.00,Acu-Link.com,2013-01-16 11:54:00,
2013-01-16 06:13:00,37.0,36.5,30.00,North,0,7.8,-999.0,98,-99.99,,,0.00,Acu-Link.com,2013-01-16 12:13:00,
2013-01-16 06:28:00,37.2,36.7,30.00,WNW,292,6.8,-999.0,98,-99.99,,,0.00,Acu-Link.com,2013-01-16 12:28:00,
2013-01-16 06:43:00,37.2,36.7,30.00,NW,315,7.3,-999.0,98,-99.99,,,0.00,Acu-Link.com,2013-01-16 12:43:00,
2013-01-16 06:59:00,37.2,36.7,30.02,NW,315,6.8,-999.0,98,-99.99,,,0.00,Acu-Link.com,2013-01-16 12:59:00,
2013-01-16 07:14:00,37.2,36.7,30.04,NW,315,6.8,-999.0,98,-99.99,,,0.00,Acu-Link.com,2013-01-16 13:14:00,
2013-01-16 07:29:00,37.2,36.7,30.04,NNW,337,4.7,-999.0,98,-99.99,,,0.00,Acu-Link.com,2013-01-16 13:29:00,
2013-01-16 07:44:00,37.4,36.9,30.05,NW,315,6.8,-999.0,98,-99.99,,,0.00,Acu-Link.com,2013-01-16 13:44:00,
2013-01-16 07:59:00,37.4,36.9,30.05,NE,45,5.3,-999.0,98,-99.99,,,0.00,Acu-Link.com,2013-01-16 13:59:00,
2013-01-16 08:14:00,37.6,37.1,30.07,North,0,6.3,-999.0,98,-99.99,,,0.00,Acu-Link.com,2013-01-16 14:14:00,
2013-01-16 08:29:00,37.8,37.3,30.07,North,0,4.2,-999.0,98,-99.99,,,0.00,Acu-Link.com,2013-01-16 14:29:00,
2013-01-16 08:45:00,37.8,36.5,30.08,North,0,6.3,-999.0,95,-99.99,,,0.00,Acu-Link.com,2013-01-16 14:45:00,
2013-01-16 09:00:00,38.1,36.8,30.10,NNW,337,6.8,-999.0,95,-99.99,,,0.00,Acu-Link.com,2013-01-16 15:00:00,
2013-01-16 09:15:00,38.1,37.1,30.10,North,0,4.7,-999.0,96,-99.99,,,0.00,Acu-Link.com,2013-01-16 15:15:00,
2013-01-16 09:30:00,38.5,36.9,30.10,NNE,22,5.3,-999.0,94,-99.99,,,0.00,Acu-Link.com,2013-01-16 15:30:00,
2013-01-16 09:45:00,38.8,36.7,30.09,NNE,22,2.7,-999.0,92,-99.99,,,0.00,Acu-Link.com,2013-01-16 15:45:00,
2013-01-16 10:00:00,39.6,37.2,30.10,NNW,337,5.8,-999.0,91,-99.99,,,0.00,Acu-Link.com,2013-01-16 16:00:00,
2013-01-16 10:15:00,39.9,36.9,30.10,North,0,7.3,-999.0,89,-99.99,,,0.00,Acu-Link.com,2013-01-16 16:15:00,
2013-01-16 10:30:00,40.5,37.2,30.10,NNW,337,5.8,-999.0,88,-99.99,,,0.00,Acu-Link.com,2013-01-16 16:30:00,
2013-01-16 10:45:00,41.0,37.4,30.08,NNW,337,6.8,-999.0,87,-99.99,,,0.00,Acu-Link.com,2013-01-16 16:45:00,
2013-01-16 11:01:00,42.1,37.6,30.09,NNE,22,4.7,-999.0,84,-99.99,,,0.00,Acu-Link.com,2013-01-16 17:01:00,
2013-01-16 11:16:00,43.0,38.2,30.09,NNE,22,7.3,-999.0,83,-99.99,,,0.00,Acu-Link.com,2013-01-16 17:16:00,
2013-01-16 11:31:00,43.2,37.8,30.08,NNE,22,6.3,-999.0,81,-99.99,,,0.00,Acu-Link.com,2013-01-16 17:31:00,
2013-01-16 11:46:00,44.1,38.3,30.06,NNW,337,4.7,-999.0,80,-99.99,,,0.00,Acu-Link.com,2013-01-16 17:46:00,
2013-01-16 12:01:00,44.2,37.8,30.07,West,270,5.8,-999.0,78,-99.99,,,0.00,Acu-Link.com,2013-01-16 18:01:00,
2013-01-16 12:16:00,44.8,38.0,30.05,West,270,4.2,-999.0,77,-99.99,,,0.00,Acu-Link.com,2013-01-16 18:16:00,
2013-01-16 12:31:00,47.5,39.6,30.04,NW,315,6.3,-999.0,74,-99.99,,,0.00,Acu-Link.com,2013-01-16 18:31:00,
2013-01-16 12:46:00,48.0,38.7,30.03,West,270,7.8,-999.0,70,-99.99,,,0.00,Acu-Link.com,2013-01-16 18:46:00,
2013-01-16 13:01:00,49.5,39.4,30.02,WSW,247,7.3,-999.0,68,-99.99,,,0.00,Acu-Link.com,2013-01-16 19:01:00,
2013-01-16 13:17:00,49.5,38.6,30.01,NNW,337,5.3,-999.0,66,-99.99,,,0.00,Acu-Link.com,2013-01-16 19:17:00,
2013-01-16 13:32:00,50.0,39.1,30.01,NNW,337,3.7,-999.0,66,-99.99,,,0.00,Acu-Link.com,2013-01-16 19:32:00,
2013-01-16 13:47:00,51.3,37.9,30.00,WNW,292,9.9,-999.0,60,-99.99,,,0.00,Acu-Link.com,2013-01-16 19:47:00,
2013-01-16 14:02:00,51.4,36.2,30.00,NNE,22,7.3,-999.0,56,-99.99,,,0.00,Acu-Link.com,2013-01-16 20:02:00,
2013-01-16 14:17:00,50.5,36.3,29.99,North,0,8.9,-999.0,58,-99.99,,,0.00,Acu-Link.com,2013-01-16 20:17:00,
2013-01-16 14:32:00,51.8,35.2,29.99,NW,315,7.3,-999.0,53,-99.99,,,0.00,Acu-Link.com,2013-01-16 20:32:00,
2013-01-16 14:47:00,52.2,35.1,29.99,West,270,6.3,-999.0,52,-99.99,,,0.00,Acu-Link.com,2013-01-16 20:47:00,
2013-01-16 15:02:00,52.0,34.4,29.98,SSW,202,6.3,-999.0,51,-99.99,,,0.00,Acu-Link.com,2013-01-16 21:02:00,
2013-01-16 15:18:00,52.2,34.6,29.98,West,270,5.8,-999.0,51,-99.99,,,0.00,Acu-Link.com,2013-01-16 21:18:00,
2013-01-16 15:33:00,51.8,35.2,29.97,NW,315,6.3,-999.0,53,-99.99,,,0.00,Acu-Link.com,2013-01-16 21:33:00,
2013-01-16 15:48:00,53.2,35.0,29.98,West,270,8.3,-999.0,50,-99.99,,,0.00,Acu-Link.com,2013-01-16 21:48:00,
2013-01-16 16:03:00,52.5,34.4,29.99,NNW,337,7.8,-999.0,50,-99.99,,,0.00,Acu-Link.com,2013-01-16 22:03:00,
2013-01-16 16:18:00,51.6,33.6,29.99,North,0,3.7,-999.0,50,-99.99,,,0.00,Acu-Link.com,2013-01-16 22:18:00,
2013-01-16 16:33:00,51.3,33.3,30.00,WNW,292,5.8,-999.0,50,-99.99,,,0.00,Acu-Link.com,2013-01-16 22:33:00,
2013-01-16 16:48:00,50.9,32.9,30.00,NW,315,7.3,-999.0,50,-99.99,,,0.00,Acu-Link.com,2013-01-16 22:48:00,
2013-01-16 17:04:00,50.2,32.3,30.01,West,270,5.3,-999.0,50,-99.99,,,0.00,Acu-Link.com,2013-01-16 23:04:00,
2013-01-16 17:19:00,48.9,32.1,30.02,WNW,292,4.2,-999.0,52,-99.99,,,0.00,Acu-Link.com,2013-01-16 23:19:00,
2013-01-16 17:34:00,47.5,32.1,30.03,West,270,6.3,-999.0,55,-99.99,,,0.00,Acu-Link.com,2013-01-16 23:34:00,
2013-01-16 17:49:00,46.4,32.4,30.04,West,270,3.7,-999.0,58,-99.99,,,0.00,Acu-Link.com,2013-01-16 23:49:00,
2013-01-16 18:04:00,45.5,32.0,30.05,West,270,6.3,-999.0,59,-99.99,,,0.00,Acu-Link.com,2013-01-17 00:04:00,
2013-01-16 18:19:00,44.8,31.4,30.06,WNW,292,6.8,-999.0,59,-99.99,,,0.00,Acu-Link.com,2013-01-17 00:19:00,
2013-01-16 18:34:00,44.2,30.8,30.07,West,270,3.7,-999.0,59,-99.99,,,0.00,Acu-Link.com,2013-01-17 00:34:00,
2013-01-16 18:49:00,43.3,30.8,30.08,WNW,292,4.7,-999.0,61,-99.99,,,0.00,Acu-Link.com,2013-01-17 00:49:00,
2013-01-16 19:04:00,42.8,30.7,30.08,WNW,292,2.7,-999.0,62,-99.99,,,0.00,Acu-Link.com,2013-01-17 01:04:00,
2013-01-16 19:20:00,42.6,30.9,30.09,West,270,5.8,-999.0,63,-99.99,,,0.00,Acu-Link.com,2013-01-17 01:20:00,
2013-01-16 19:35:00,42.1,30.8,30.09,WSW,247,2.7,-999.0,64,-99.99,,,0.00,Acu-Link.com,2013-01-17 01:35:00,
2013-01-16 19:50:00,41.4,30.9,30.10,West,270,3.2,-999.0,66,-99.99,,,0.00,Acu-Link.com,2013-01-17 01:50:00,
2013-01-16 20:05:00,40.8,30.7,30.10,SSW,202,3.2,-999.0,67,-99.99,,,0.00,Acu-Link.com,2013-01-17 02:05:00,
2013-01-16 20:20:00,40.3,30.6,30.11,West,270,3.2,-999.0,68,-99.99,,,0.00,Acu-Link.com,2013-01-17 02:20:00,
2013-01-16 20:35:00,39.7,31.1,30.11,West,270,1.7,-999.0,71,-99.99,,,0.00,Acu-Link.com,2013-01-17 02:35:00,
2013-01-16 20:50:00,38.8,30.6,30.11,West,270,1.1,-999.0,72,-99.99,,,0.00,Acu-Link.com,2013-01-17 02:50:00,
2013-01-16 21:20:00,37.2,30.0,30.12,West,270,2.2,-999.0,75,-99.99,,,0.00,Acu-Link.com,2013-01-17 03:20:00,
2013-01-16 21:36:00,36.5,30.0,30.11,West,270,1.7,-999.0,77,-99.99,,,0.00,Acu-Link.com,2013-01-17 03:36:00,
2013-01-16 21:51:00,35.2,30.3,30.10,SW,225,0.0,-999.0,82,-99.99,,,0.00,Acu-Link.com,2013-01-17 03:51:00,
2013-01-16 22:06:00,34.0,31.1,30.11,SSW,202,0.0,-999.0,89,-99.99,,,0.00,Acu-Link.com,2013-01-17 04:06:00,
2013-01-16 22:21:00,33.1,30.8,30.11,SSE,157,0.0,-999.0,91,-99.99,,,0.00,Acu-Link.com,2013-01-17 04:21:00,
2013-01-16 22:36:00,32.5,31.0,30.11,SSE,157,0.0,-999.0,94,-99.99,,,0.00,Acu-Link.com,2013-01-17 04:36:00,
2013-01-16 22:51:00,32.0,31.5,30.11,SSE,157,0.0,-999.0,98,-99.99,,,0.00,Acu-Link.com,2013-01-17 04:51:00,
2013-01-16 23:06:00,30.9,30.4,30.10,SSE,157,0.0,-999.0,98,-99.99,,,0.00,Acu-Link.com,2013-01-17 05:06:00,
2013-01-16 23:21:00,30.9,30.4,30.11,SSE,157,0.0,-999.0,98,-99.99,,,0.00,Acu-Link.com,2013-01-17 05:21:00,
2013-01-16 23:40:00,29.7,29.2,30.11,SSE,157,0.0,-999.0,98,-99.99,,,0.00,Acu-Link.com,2013-01-17 05:40:00,